Time;durP1;ratioP1;P1;durP2;ratioP2;P2;SDS_P1;SDS_P2;PMS_P1;PMS_P2;Temp;Humidity;BMP_temperature;BMP_pressure;BME280_temperature;BME280_humidity;BME280_pressure;Samples;Min_cycle;Max_cycle;Signal;HPM_P1;HPM_P2
2023/11/03 00:01:04;;;;;;;;;;;;;;;23.92;33.30;98203.75;4198981;28;19928;-64
2023/11/03 00:03:08;;;;;;;;;;;;;;;23.89;33.70;98212.19;4198455;28;19960;-64
2023/11/03 00:05:12;;;;;;;;;;;;;;;23.89;33.58;98205.97;4198972;28;20341;-64
2023/11/03 00:07:14;;;;;;;;;;;;;;;23.90;33.51;98216.53;4198408;28;20010;-65
2023/11/03 00:09:23;;;;;;;;;;;;;;;23.92;33.45;98206.44;4198279;28;19932;-64
2023/11/03 00:11:27;;;;;;;;;;;;;;;23.96;33.60;98209.53;4198848;28;20019;-64
2023/11/03 00:13:28;;;;;;;;;;;;;;;23.96;33.56;98201.50;4198343;28;19940;-65
2023/11/03 00:15:33;;;;;;;;;;;;;;;23.97;33.26;98197.78;4198498;28;19925;-64
2023/11/03 00:17:37;;;;;;;;;;;;;;;23.99;33.60;98203.78;4201339;28;19924;-64
2023/11/03 00:19:38;;;;;;;;;;;;;;;23.98;33.35;98207.50;4215178;28;20401;-63
2023/11/03 00:21:40;;;;;;;;;;;;;;;23.96;33.53;98203.38;4215289;28;19924;-63
2023/11/03 00:23:42;;;;;;;;;;;;;;;23.95;33.43;98205.22;4198065;28;19986;-64
2023/11/03 00:25:47;;;;;;;;;;;;;;;23.92;33.34;98209.13;4198669;28;19932;-64
2023/11/03 00:27:50;;;;;;;;;;;;;;;23.90;33.80;98210.31;4198011;28;19967;-64
2023/11/03 00:29:55;;;;;;;;;;;;;;;23.90;33.70;98202.28;4198593;28;19928;-64
2023/11/03 00:31:56;;;;;;;;;;;;;;;23.93;33.50;98208.09;4198413;28;19932;-63
2023/11/03 00:33:58;;;;;;;;;;;;;;;23.95;33.27;98205.22;4197932;28;19928;-63
2023/11/03 00:36:02;;;;;;;;;;;;;;;24.00;33.40;98204.59;4198376;28;19936;-63
2023/11/03 00:38:04;;;;;;;;;;;;;;;24.00;33.54;98208.13;4197864;28;19924;-64
2023/11/03 00:40:11;;;;;;;;;;;;;;;24.03;33.41;98212.25;4198228;28;19943;-63
2023/11/03 00:42:13;;;;;;;;;;;;;;;24.00;33.35;98210.81;4198406;28;19931;-64
2023/11/03 00:44:15;;;;;;;;;;;;;;;23.98;33.38;98218.22;4197963;28;19956;-64
2023/11/03 00:46:17;;;;;;;;;;;;;;;23.98;33.42;98218.22;4198241;28;19935;-65
2023/11/03 00:48:20;;;;;;;;;;;;;;;23.96;33.74;98227.53;4197753;28;19977;-65
2023/11/03 00:50:22;;;;;;;;;;;;;;;23.94;33.76;98230.41;4198212;28;20027;-64
2023/11/03 00:52:25;;;;;;;;;;;;;;;23.96;33.55;98235.56;4197560;28;20023;-64
2023/11/03 00:54:27;;;;;;;;;;;;;;;23.97;33.43;98230.00;4197672;28;19929;-65
2023/11/03 00:56:28;;;;;;;;;;;;;;;23.99;33.37;98233.31;4198154;28;19925;-65
2023/11/03 00:58:30;;;;;;;;;;;;;;;24.02;33.46;98240.97;4197775;28;20435;-64
2023/11/03 01:00:35;;;;;;;;;;;;;;;24.02;33.72;98246.34;4197990;28;19924;-64
2023/11/03 01:02:37;;;;;;;;;;;;;;;24.04;33.27;98238.09;4198071;28;20047;-65
2023/11/03 01:04:39;;;;;;;;;;;;;;;24.04;33.38;98244.25;4197972;28;19932;-64
2023/11/03 01:06:40;;;;;;;;;;;;;;;24.02;33.32;98240.97;4196656;28;19932;-64
2023/11/03 01:08:43;;;;;;;;;;;;;;;24.00;33.09;98239.50;4197513;28;20292;-65
2023/11/03 01:10:44;;;;;;;;;;;;;;;23.98;33.55;98241.59;4197884;28;19924;-65
2023/11/03 01:12:46;;;;;;;;;;;;;;;23.95;33.67;98240.13;4197741;28;19956;-65
2023/11/03 01:14:50;;;;;;;;;;;;;;;23.96;33.45;98243.63;4197602;28;20289;-64
2023/11/03 01:16:52;;;;;;;;;;;;;;;23.98;33.53;98241.59;4197396;28;19925;-65
2023/11/03 01:18:54;;;;;;;;;;;;;;;24.01;33.58;98236.63;4208907;28;20023;-64
2023/11/03 01:20:57;;;;;;;;;;;;;;;24.03;33.30;98247.16;4197227;28;20302;-64
2023/11/03 01:22:59;;;;;;;;;;;;;;;24.06;33.25;98247.59;4197613;28;20281;-64
2023/11/03 01:25:00;;;;;;;;;;;;;;;24.06;33.21;98244.91;4197166;28;19924;-63
2023/11/03 01:27:04;;;;;;;;;;;;;;;24.04;33.30;98243.44;4197575;28;19932;-64
2023/11/03 01:29:05;;;;;;;;;;;;;;;24.02;33.46;98248.19;4197247;28;19924;-64
2023/11/03 01:31:08;;;;;;;;;;;;;;;23.98;33.59;98239.72;4197383;28;19928;-64
2023/11/03 01:33:10;;;;;;;;;;;;;;;23.98;33.36;98241.59;4197432;28;19924;-65
2023/11/03 01:35:12;;;;;;;;;;;;;;;23.97;33.68;98253.34;4197112;28;19925;-65
2023/11/03 01:37:14;;;;;;;;;;;;;;;23.96;33.66;98257.88;4196910;28;20034;-63
2023/11/03 01:39:16;;;;;;;;;;;;;;;23.97;33.71;98248.78;4197418;28;19970;-64
2023/11/03 01:41:19;;;;;;;;;;;;;;;24.02;33.33;98257.09;4201248;28;19978;-63
2023/11/03 01:43:20;;;;;;;;;;;;;;;24.06;33.41;98249.44;4195905;28;19975;-64
2023/11/03 01:45:22;;;;;;;;;;;;;;;24.08;33.42;98255.44;4210141;28;19930;-64
2023/11/03 01:47:23;;;;;;;;;;;;;;;24.08;33.21;98242.00;4204908;28;19924;-62
2023/11/03 01:49:25;;;;;;;;;;;;;;;24.07;33.33;98251.09;4213301;28;19924;-63
2023/11/03 01:51:27;;;;;;;;;;;;;;;24.04;33.25;98246.13;4202023;28;19928;-63
2023/11/03 01:53:31;;;;;;;;;;;;;;;24.03;33.26;98253.34;4212784;28;19946;-64
2023/11/03 01:55:32;;;;;;;;;;;;;;;24.00;33.56;98242.19;4211171;28;19924;-64
2023/11/03 01:57:34;;;;;;;;;;;;;;;23.99;33.45;98248.59;4203585;28;19924;-63
2023/11/03 01:59:36;;;;;;;;;;;;;;;24.00;33.71;98255.59;4213567;28;20398;-64
2023/11/03 02:01:38;;;;;;;;;;;;;;;24.01;33.18;98258.13;4203340;28;19932;-64
2023/11/03 02:03:39;;;;;;;;;;;;;;;24.03;33.33;98256.03;4210989;28;19924;-63
2023/11/03 02:05:42;;;;;;;;;;;;;;;24.05;33.27;98258.53;4212003;28;20348;-64
2023/11/03 02:07:44;;;;;;;;;;;;;;;24.05;33.19;98259.34;4202160;28;20457;-64
2023/11/03 02:09:45;;;;;;;;;;;;;;;24.10;33.54;98264.13;4213610;28;19924;-63
2023/11/03 02:11:48;;;;;;;;;;;;;;;24.06;33.26;98260.19;4204973;28;20337;-64
2023/11/03 02:13:50;;;;;;;;;;;;;;;24.05;33.56;98266.59;4209493;28;19931;-64
2023/11/03 02:15:51;;;;;;;;;;;;;;;24.03;33.47;98263.28;4194115;28;19933;-64
2023/11/03 02:17:53;;;;;;;;;;;;;;;24.01;33.47;98263.47;4204064;28;19924;-64
2023/11/03 02:19:54;;;;;;;;;;;;;;;23.99;33.58;98259.34;4213283;28;19928;-64
2023/11/03 02:21:56;;;;;;;;;;;;;;;23.98;33.68;98255.81;4202398;28;19924;-64
2023/11/03 02:23:57;;;;;;;;;;;;;;;23.98;33.35;98258.50;4196812;28;20023;-63
2023/11/03 02:25:59;;;;;;;;;;;;;;;24.03;33.51;98260.59;4196843;28;19959;-64
2023/11/03 02:28:00;;;;;;;;;;;;;;;24.09;33.13;98268.66;4196622;28;19928;-64
2023/11/03 02:30:03;;;;;;;;;;;;;;;24.11;33.12;98263.09;4197008;28;20007;-64
2023/11/03 02:32:04;;;;;;;;;;;;;;;24.10;33.18;98266.81;4196629;28;19925;-64
2023/11/03 02:34:07;;;;;;;;;;;;;;;24.08;33.43;98266.16;4196561;28;20377;-64
2023/11/03 02:36:09;;;;;;;;;;;;;;;24.06;33.21;98262.88;4196932;28;19940;-64
2023/11/03 02:38:10;;;;;;;;;;;;;;;24.06;33.49;98263.69;4196507;28;19924;-64
2023/11/03 02:40:13;;;;;;;;;;;;;;;24.02;33.24;98256.25;4196478;28;19962;-64
2023/11/03 02:42:16;;;;;;;;;;;;;;;24.00;33.53;98255.59;4196524;28;19925;-64
2023/11/03 02:44:18;;;;;;;;;;;;;;;23.97;33.28;98251.47;4196759;28;20439;-64
2023/11/03 02:46:19;;;;;;;;;;;;;;;24.00;33.53;98253.78;4196536;28;20032;-64
2023/11/03 02:48:21;;;;;;;;;;;;;;;24.02;33.53;98264.28;4196206;28;20278;-64
2023/11/03 02:50:22;;;;;;;;;;;;;;;24.05;33.27;98256.66;4196369;28;19997;-64
2023/11/03 02:52:24;;;;;;;;;;;;;;;24.10;33.37;98256.06;4196513;28;19978;-64
2023/11/03 02:54:25;;;;;;;;;;;;;;;24.09;33.22;98270.50;4196624;28;20015;-63
2023/11/03 02:56:27;;;;;;;;;;;;;;;24.09;33.03;98267.84;4196785;28;20309;-64
2023/11/03 02:58:32;;;;;;;;;;;;;;;24.10;33.05;98269.50;4196140;28;19931;-65
2023/11/03 03:00:35;;;;;;;;;;;;;;;24.07;33.08;98273.41;4196646;28;19925;-64
2023/11/03 03:02:37;;;;;;;;;;;;;;;24.04;33.46;98259.56;4179520;28;19947;-64
2023/11/03 03:04:38;;;;;;;;;;;;;;;24.03;33.14;98260.59;4207839;28;19928;-65
2023/11/03 03:06:45;;;;;;;;;;;;;;;24.00;33.54;98264.50;4196422;28;19924;-63
2023/11/03 03:08:48;;;;;;;;;;;;;;;24.00;33.12;98272.56;4196059;28;19971;-64
2023/11/03 03:10:49;;;;;;;;;;;;;;;24.04;33.48;98267.63;4196454;28;19925;-64
2023/11/03 03:12:51;;;;;;;;;;;;;;;24.08;33.14;98274.22;4196169;28;19924;-64
2023/11/03 03:14:53;;;;;;;;;;;;;;;24.08;33.09;98276.91;4196286;28;19925;-64
2023/11/03 03:16:54;;;;;;;;;;;;;;;24.12;32.98;98280.03;4196162;28;19975;-64
2023/11/03 03:18:56;;;;;;;;;;;;;;;24.11;33.15;98275.66;4198476;28;20417;-63
2023/11/03 03:20:57;;;;;;;;;;;;;;;24.13;33.29;98279.00;4196451;28;19928;-64
2023/11/03 03:22:59;;;;;;;;;;;;;;;24.08;33.25;98271.53;4196080;28;19924;-63
2023/11/03 03:25:01;;;;;;;;;;;;;;;24.06;33.45;98276.31;4196337;28;19925;-64
2023/11/03 03:27:02;;;;;;;;;;;;;;;23.94;33.12;98262.63;4196314;28;19989;-64
2023/11/03 03:29:04;;;;;;;;;;;;;;;24.00;33.13;98283.31;4195790;28;19924;-63
2023/11/03 03:31:05;;;;;;;;;;;;;;;24.00;33.10;98283.31;4198433;28;20340;-65
2023/11/03 03:33:07;;;;;;;;;;;;;;;24.00;33.43;98283.31;4198556;28;19924;-64
2023/11/03 03:35:09;;;;;;;;;;;;;;;24.06;33.44;98276.31;4199165;28;19997;-64
2023/11/03 03:37:13;;;;;;;;;;;;;;;24.11;32.91;98281.03;4199038;28;19925;-64
2023/11/03 03:39:14;;;;;;;;;;;;;;;24.12;33.35;98285.38;4199065;28;20019;-64
2023/11/03 03:41:16;;;;;;;;;;;;;;;24.12;32.96;98286.22;4199135;28;20439;-64
2023/11/03 03:43:17;;;;;;;;;;;;;;;24.15;32.99;98285.00;4198820;28;19924;-64
2023/11/03 03:45:19;;;;;;;;;;;;;;;24.09;33.37;98294.69;4192666;28;20437;-64
2023/11/03 03:47:21;;;;;;;;;;;;;;;24.06;33.32;98301.28;4199087;28;19931;-64
2023/11/03 03:49:23;;;;;;;;;;;;;;;24.05;33.27;98288.88;4201191;28;20003;-65
2023/11/03 03:51:24;;;;;;;;;;;;;;;24.03;33.15;98293.63;4208905;28;19928;-64
2023/11/03 03:53:26;;;;;;;;;;;;;;;24.04;33.11;98286.41;4198836;28;19925;-63
2023/11/03 03:55:27;;;;;;;;;;;;;;;24.06;33.44;98285.19;4208723;28;19978;-64
2023/11/03 03:57:29;;;;;;;;;;;;;;;24.12;33.08;98290.75;4183226;28;20413;-64
2023/11/03 03:59:30;;;;;;;;;;;;;;;24.15;33.05;98287.69;4200244;28;20356;-63
2023/11/03 04:01:32;;;;;;;;;;;;;;;24.14;33.32;98292.22;4209834;28;20015;-64
2023/11/03 04:03:33;;;;;;;;;;;;;;;24.15;32.99;98285.81;4198615;28;19925;-63
2023/11/03 04:05:35;;;;;;;;;;;;;;;24.12;32.96;98288.06;4206887;28;20474;-63
2023/11/03 04:07:36;;;;;;;;;;;;;;;24.10;32.94;98293.66;4202862;28;20263;-64
2023/11/03 04:09:38;;;;;;;;;;;;;;;24.09;32.95;98292.00;4199868;28;19924;-64
2023/11/03 04:11:40;;;;;;;;;;;;;;;24.04;33.32;98299.84;4210039;28;19959;-64
2023/11/03 04:13:41;;;;;;;;;;;;;;;24.05;33.33;98301.50;4198725;28;19924;-64
2023/11/03 04:15:43;;;;;;;;;;;;;;;24.04;33.28;98310.56;4204844;28;19955;-64
2023/11/03 04:17:45;;;;;;;;;;;;;;;24.05;33.23;98314.91;4208576;28;19924;-64
2023/11/03 04:19:46;;;;;;;;;;;;;;;24.09;33.12;98319.66;4213760;28;19928;-64
2023/11/03 04:21:48;;;;;;;;;;;;;;;24.12;33.04;98318.47;4198202;28;19960;-65
2023/11/03 04:23:49;;;;;;;;;;;;;;;24.13;32.71;98319.28;4198540;28;19932;-64
2023/11/03 04:25:53;;;;;;;;;;;;;;;24.15;32.89;98325.28;4198476;28;19925;-64
2023/11/03 04:27:55;;;;;;;;;;;;;;;24.12;32.82;98321.16;4198316;28;19928;-64
2023/11/03 04:29:56;;;;;;;;;;;;;;;24.09;33.06;98314.28;4197958;28;20370;-65
2023/11/03 04:31:58;;;;;;;;;;;;;;;24.06;33.00;98314.72;4198359;28;19981;-64
2023/11/03 04:33:59;;;;;;;;;;;;;;;24.05;33.05;98313.06;4198316;28;19932;-64
2023/11/03 04:36:02;;;;;;;;;;;;;;;24.03;33.21;98312.41;4183816;28;19987;-65
2023/11/03 04:38:04;;;;;;;;;;;;;;;24.04;32.99;98322.13;4206924;28;19924;-64
2023/11/03 04:40:06;;;;;;;;;;;;;;;24.07;33.08;98320.91;4197914;28;19967;-64
2023/11/03 04:42:08;;;;;;;;;;;;;;;24.09;32.90;98316.97;4208125;28;19954;-65
2023/11/03 04:44:09;;;;;;;;;;;;;;;24.13;33.20;98322.78;4199008;28;19933;-64
2023/11/03 04:46:11;;;;;;;;;;;;;;;24.16;33.15;98326.94;4199834;28;20016;-63
2023/11/03 04:48:12;;;;;;;;;;;;;;;24.19;32.83;98326.53;4208713;28;20003;-63
2023/11/03 04:50:14;;;;;;;;;;;;;;;24.20;33.21;98328.19;4197585;28;20421;-63
2023/11/03 04:52:16;;;;;;;;;;;;;;;24.17;32.85;98328.56;4207042;28;19970;-63
2023/11/03 04:54:17;;;;;;;;;;;;;;;24.12;33.21;98322.97;4200818;28;19931;-64
2023/11/03 04:56:19;;;;;;;;;;;;;;;24.09;33.13;98329.59;4199287;28;19928;-65
2023/11/03 04:58:21;;;;;;;;;;;;;;;24.04;33.17;98327.50;4208856;28;19931;-63
2023/11/03 05:00:22;;;;;;;;;;;;;;;24.03;32.97;98319.66;4197756;28;19924;-64
2023/11/03 05:02:26;;;;;;;;;;;;;;;24.06;33.32;98328.13;4205173;28;20014;-64
2023/11/03 05:04:28;;;;;;;;;;;;;;;24.09;33.02;98322.34;4202137;28;20340;-63
2023/11/03 05:06:29;;;;;;;;;;;;;;;24.12;33.08;98318.47;4198757;28;20122;-64
2023/11/03 05:08:31;;;;;;;;;;;;;;;24.13;32.78;98316.59;4208990;28;19925;-64
2023/11/03 05:10:32;;;;;;;;;;;;;;;24.13;32.80;98319.28;4197763;28;19963;-64
2023/11/03 05:12:35;;;;;;;;;;;;;;;24.14;33.11;98315.56;4203854;28;19928;-64
2023/11/03 05:14:37;;;;;;;;;;;;;;;24.14;32.70;98329.00;4203200;28;19925;-64
2023/11/03 05:16:38;;;;;;;;;;;;;;;24.09;33.00;98325.03;4198053;28;20014;-64
2023/11/03 05:18:40;;;;;;;;;;;;;;;24.05;33.08;98334.53;4210296;28;19928;-64
2023/11/03 05:20:42;;;;;;;;;;;;;;;24.04;32.85;98332.06;4214305;28;19924;-64
2023/11/03 05:22:43;;;;;;;;;;;;;;;24.02;32.98;98334.09;4205039;28;20027;-64
2023/11/03 05:24:45;;;;;;;;;;;;;;;24.02;32.85;98340.31;4197663;28;19928;-64
2023/11/03 05:26:47;;;;;;;;;;;;;;;24.04;32.87;98335.56;4197685;28;19924;-64
2023/11/03 05:28:49;;;;;;;;;;;;;;;24.09;32.85;98329.59;4196873;28;20022;-65
2023/11/03 05:30:50;;;;;;;;;;;;;;;24.13;32.82;98338.06;4197492;28;19928;-64
2023/11/03 05:32:52;;;;;;;;;;;;;;;24.14;32.81;98339.72;4197127;28;19956;-64
2023/11/03 05:34:53;;;;;;;;;;;;;;;24.15;32.87;98344.91;4197253;28;19924;-64
2023/11/03 05:36:55;;;;;;;;;;;;;;;24.11;32.65;98349.03;4197380;28;19924;-63
2023/11/03 05:38:56;;;;;;;;;;;;;;;24.08;32.74;98341.34;4197168;28;20007;-64
2023/11/03 05:40:58;;;;;;;;;;;;;;;24.04;32.87;98340.94;4197204;28;19936;-63
2023/11/03 05:42:59;;;;;;;;;;;;;;;24.02;32.74;98356.44;4197073;28;19924;-64
2023/11/03 05:45:01;;;;;;;;;;;;;;;23.99;33.05;98342.56;4197108;28;19931;-66
2023/11/03 05:47:03;;;;;;;;;;;;;;;23.99;32.82;98347.94;4197167;28;19924;-63
2023/11/03 05:49:09;;;;;;;;;;;;;;;24.00;33.00;98352.25;4196745;28;19929;-63
2023/11/03 05:51:11;;;;;;;;;;;;;;;24.02;32.94;98356.44;4197048;28;19966;-64
2023/11/03 05:53:12;;;;;;;;;;;;;;;24.06;32.84;98343.44;4196808;28;19932;-63
2023/11/03 05:55:14;;;;;;;;;;;;;;;24.07;32.91;98342.38;4197117;28;19977;-66
2023/11/03 05:57:16;;;;;;;;;;;;;;;24.06;32.98;98352.31;4196985;28;19924;-66
2023/11/03 05:59:22;;;;;;;;;;;;;;;24.07;32.82;98351.28;4197056;28;20301;-63
2023/11/03 06:01:32;;;;;;;;;;;;;;;24.07;32.70;98351.28;4196917;28;19925;-66
2023/11/03 06:03:34;;;;;;;;;;;;;;;24.01;32.66;98346.72;4196955;28;19931;-66
2023/11/03 06:05:36;;;;;;;;;;;;;;;23.99;32.76;98353.31;4196898;28;19924;-66
2023/11/03 06:07:38;;;;;;;;;;;;;;;23.97;32.67;98358.84;4197148;28;20381;-66
2023/11/03 06:09:39;;;;;;;;;;;;;;;24.01;32.82;98361.97;4196783;28;19924;-66
2023/11/03 06:11:41;;;;;;;;;;;;;;;24.02;32.78;98366.31;4196979;28;19935;-65
2023/11/03 06:13:42;;;;;;;;;;;;;;;24.05;32.50;98368.63;4196661;28;20450;-65
2023/11/03 06:15:44;;;;;;;;;;;;;;;24.06;32.80;98370.28;4196885;28;19925;-64
2023/11/03 06:17:45;;;;;;;;;;;;;;;24.07;32.63;98370.06;4201527;28;19956;-64
2023/11/03 06:19:47;;;;;;;;;;;;;;;24.07;32.60;98370.06;4203170;28;19925;-65
2023/11/03 06:21:54;;;;;;;;;;;;;;;24.05;32.53;98371.31;4196955;28;20032;-64
2023/11/03 06:23:56;;;;;;;;;;;;;;;24.04;32.71;98369.66;4196852;28;19928;-64
2023/11/03 06:25:57;;;;;;;;;;;;;;;24.01;32.90;98378.94;4196392;28;19947;-64
2023/11/03 06:27:59;;;;;;;;;;;;;;;23.98;32.75;98381.19;4196956;28;19925;-64
2023/11/03 06:30:00;;;;;;;;;;;;;;;23.99;32.77;98389.03;4196423;28;20023;-64
2023/11/03 06:32:03;;;;;;;;;;;;;;;24.00;32.64;98382.63;4196653;28;19924;-64
2023/11/03 06:34:04;;;;;;;;;;;;;;;24.02;32.85;98396.72;4196772;28;19967;-65
2023/11/03 06:36:06;;;;;;;;;;;;;;;24.04;32.71;98391.94;4211815;28;19935;-64
2023/11/03 06:38:12;;;;;;;;;;;;;;;24.08;32.60;98389.69;4196687;28;20348;-65
2023/11/03 06:40:15;;;;;;;;;;;;;;;24.08;32.85;98387.00;4196299;28;19928;-64
2023/11/03 06:42:17;;;;;;;;;;;;;;;24.12;32.56;98380.22;4196643;28;19932;-64
2023/11/03 06:44:19;;;;;;;;;;;;;;;24.12;32.60;98399.03;4196761;28;19931;-64
2023/11/03 06:46:22;;;;;;;;;;;;;;;24.08;32.49;98393.22;4196558;28;19934;-64
2023/11/03 06:48:25;;;;;;;;;;;;;;;24.07;32.64;98399.63;4196667;28;19924;-65
2023/11/03 06:50:27;;;;;;;;;;;;;;;24.00;32.86;98398.75;4196480;28;19928;-64
2023/11/03 06:52:29;;;;;;;;;;;;;;;23.97;32.65;98406.38;4196352;28;20278;-64
2023/11/03 06:54:31;;;;;;;;;;;;;;;23.98;32.61;98403.47;4196130;28;20337;-64
2023/11/03 06:56:32;;;;;;;;;;;;;;;24.00;32.62;98414.84;4196480;28;19963;-64
2023/11/03 06:58:36;;;;;;;;;;;;;;;24.01;32.96;98416.53;4195764;28;20496;-65
2023/11/03 07:00:41;;;;;;;;;;;;;;;24.06;32.34;98424.00;4196376;28;19924;-65
2023/11/03 07:02:43;;;;;;;;;;;;;;;24.08;32.67;98425.44;4196619;28;20023;-64
2023/11/03 07:04:45;;;;;;;;;;;;;;;24.10;32.63;98427.91;4195646;28;20347;-64
2023/11/03 07:06:46;;;;;;;;;;;;;;;24.08;32.46;98427.28;4199618;28;19925;-64
2023/11/03 07:08:48;;;;;;;;;;;;;;;24.00;32.72;98425.59;4199485;28;19929;-64
2023/11/03 07:10:50;;;;;;;;;;;;;;;23.97;32.82;98428.66;4199427;28;19932;-64
2023/11/03 07:12:52;;;;;;;;;;;;;;;23.95;32.41;98430.75;4199517;28;19967;-65
2023/11/03 07:14:53;;;;;;;;;;;;;;;23.94;32.84;98434.44;4199693;28;19924;-64
2023/11/03 07:16:58;;;;;;;;;;;;;;;23.95;32.42;98430.75;4199246;28;19929;-64
2023/11/03 07:19:00;;;;;;;;;;;;;;;23.97;32.54;98431.34;4214197;28;20348;-64
2023/11/03 07:21:02;;;;;;;;;;;;;;;24.01;32.70;98443.38;4212439;28;19932;-64
2023/11/03 07:23:07;;;;;;;;;;;;;;;24.03;32.42;98430.56;4199543;28;19928;-64
2023/11/03 07:25:08;;;;;;;;;;;;;;;24.07;32.43;98436.34;4199046;28;20026;-64
2023/11/03 07:27:11;;;;;;;;;;;;;;;24.11;32.42;98444.84;4199249;28;19985;-65
2023/11/03 07:29:13;;;;;;;;;;;;;;;24.09;32.34;98442.38;4198989;28;20389;-64
2023/11/03 07:31:16;;;;;;;;;;;;;;;24.10;32.58;98446.72;4199102;28;19929;-64
2023/11/03 07:33:18;;;;;;;;;;;;;;;23.89;32.50;98407.31;4199397;28;19935;-64
2023/11/03 07:35:20;;;;;;;;;;;;;;;24.05;32.51;98441.13;4199381;28;20488;-63
2023/11/03 07:37:21;;;;;;;;;;;;;;;24.05;32.36;98433.06;4199208;28;19928;-64
2023/11/03 07:39:23;;;;;;;;;;;;;;;24.05;32.71;98438.44;4198925;28;20402;-64
2023/11/03 07:41:25;;;;;;;;;;;;;;;24.04;32.85;98440.28;4199146;28;19928;-64
2023/11/03 07:43:26;;;;;;;;;;;;;;;24.07;32.80;98444.41;4199172;28;19924;-64
2023/11/03 07:45:28;;;;;;;;;;;;;;;24.11;32.51;98443.00;4199031;28;19993;-63
2023/11/03 07:47:29;;;;;;;;;;;;;;;24.13;32.83;98443.63;4198889;28;20271;-65
2023/11/03 07:49:31;;;;;;;;;;;;;;;24.16;32.55;98445.91;4198862;28;20015;-63
2023/11/03 07:51:33;;;;;;;;;;;;;;;24.17;32.33;98452.09;4198937;28;19928;-64
2023/11/03 07:53:35;;;;;;;;;;;;;;;24.15;32.47;98449.63;4198390;28;19960;-65
2023/11/03 07:55:37;;;;;;;;;;;;;;;24.12;32.56;98449.19;4198696;28;19925;-64
2023/11/03 07:57:39;;;;;;;;;;;;;;;24.08;32.50;98451.44;4198844;28;19931;-64
2023/11/03 07:59:41;;;;;;;;;;;;;;;24.05;32.49;98447.31;4198870;28;20436;-64
2023/11/03 08:01:42;;;;;;;;;;;;;;;24.07;32.50;98444.41;4198922;28;20433;-64
2023/11/03 08:03:44;;;;;;;;;;;;;;;24.08;32.73;98446.06;4198646;28;19979;-64
2023/11/03 08:05:46;;;;;;;;;;;;;;;24.11;32.41;98443.00;4198741;28;19931;-64
2023/11/03 08:07:48;;;;;;;;;;;;;;;24.14;32.29;98455.22;4198143;28;20065;-64
2023/11/03 08:09:49;;;;;;;;;;;;;;;24.17;32.42;98458.31;4198120;28;19982;-64
2023/11/03 08:11:51;;;;;;;;;;;;;;;24.20;32.20;98454.41;4198334;28;19928;-63
2023/11/03 08:13:53;;;;;;;;;;;;;;;24.20;32.21;98449.03;4198001;28;19928;-64
2023/11/03 08:15:55;;;;;;;;;;;;;;;24.20;32.36;98457.91;4198429;28;20408;-64
2023/11/03 08:17:56;;;;;;;;;;;;;;;24.16;32.62;98453.16;4201063;28;19958;-63
2023/11/03 08:19:58;;;;;;;;;;;;;;;24.12;32.38;98460.78;4198654;28;19931;-64
2023/11/03 08:21:59;;;;;;;;;;;;;;;24.13;32.49;98458.91;4180444;28;19975;-64
2023/11/03 08:24:01;;;;;;;;;;;;;;;24.12;32.74;98458.09;4198340;28;20177;-63
2023/11/03 08:26:02;;;;;;;;;;;;;;;24.14;32.58;98460.56;4198435;28;19969;-64
2023/11/03 08:28:04;;;;;;;;;;;;;;;24.15;32.70;98455.00;4198432;28;19955;-64
2023/11/03 08:30:08;;;;;;;;;;;;;;;24.15;32.32;98457.69;4198146;28;20011;-65
2023/11/03 08:32:10;;;;;;;;;;;;;;;24.18;32.38;98457.31;4198487;28;19932;-64
2023/11/03 08:34:12;;;;;;;;;;;;;;;24.19;32.39;98455.44;4198442;28;19928;-64
2023/11/03 08:36:14;;;;;;;;;;;;;;;24.18;32.57;98465.34;4197994;28;19925;-64
2023/11/03 08:38:16;;;;;;;;;;;;;;;24.17;32.66;98465.53;4198213;28;20428;-64
2023/11/03 08:40:17;;;;;;;;;;;;;;;24.14;32.56;98464.09;4198016;28;19924;-64
2023/11/03 08:42:19;;;;;;;;;;;;;;;24.13;32.51;98473.16;4198072;28;20016;-65
2023/11/03 08:44:22;;;;;;;;;;;;;;;24.13;32.69;98473.16;4197977;28;20246;-64
2023/11/03 08:46:24;;;;;;;;;;;;;;;24.16;32.36;98477.34;4198376;28;19924;-64
2023/11/03 08:48:27;;;;;;;;;;;;;;;24.14;32.49;98487.44;4198217;28;19963;-63
2023/11/03 08:50:28;;;;;;;;;;;;;;;24.18;32.78;98491.38;4197639;28;20388;-64
2023/11/03 08:52:30;;;;;;;;;;;;;;;24.19;32.23;98487.66;4198127;28;20455;-64
2023/11/03 08:54:33;;;;;;;;;;;;;;;24.20;32.35;98497.38;4182562;28;19931;-64
2023/11/03 08:56:34;;;;;;;;;;;;;;;24.19;32.63;98498.41;4207487;28;19935;-64
2023/11/03 08:58:36;;;;;;;;;;;;;;;24.21;32.37;98489.13;4198140;28;19925;-64
2023/11/03 09:00:38;;;;;;;;;;;;;;;24.20;32.29;98497.38;4208012;28;19969;-64
2023/11/03 09:02:41;;;;;;;;;;;;;;;24.18;32.31;98494.91;4199840;28;19924;-64
2023/11/03 09:04:43;;;;;;;;;;;;;;;24.16;32.52;98496.94;4199276;28;20381;-63
2023/11/03 09:06:45;;;;;;;;;;;;;;;24.11;32.39;98490.50;4197412;28;19985;-64
2023/11/03 09:08:46;;;;;;;;;;;;;;;24.15;32.46;98491.78;4197724;28;20018;-64
2023/11/03 09:10:50;;;;;;;;;;;;;;;24.16;32.79;98494.25;4197325;28;19924;-64
2023/11/03 09:12:53;;;;;;;;;;;;;;;24.17;32.55;98492.38;4197539;28;20335;-65
2023/11/03 09:14:55;;;;;;;;;;;;;;;24.18;32.30;98477.94;4197635;28;19924;-64
2023/11/03 09:16:57;;;;;;;;;;;;;;;24.20;32.37;98474.03;4197592;28;20358;-64
2023/11/03 09:18:59;;;;;;;;;;;;;;;24.20;32.38;98481.28;4212325;28;20022;-64
2023/11/03 09:21:01;;;;;;;;;;;;;;;24.20;32.60;98486.63;4201795;28;19982;-65
2023/11/03 09:23:04;;;;;;;;;;;;;;;24.20;32.39;98487.47;4197421;28;20031;-64
2023/11/03 09:25:07;;;;;;;;;;;;;;;24.20;32.50;98486.63;4197427;28;19929;-64
2023/11/03 09:27:08;;;;;;;;;;;;;;;24.12;32.64;98482.28;4197584;28;19939;-64
2023/11/03 09:29:10;;;;;;;;;;;;;;;24.11;32.52;98487.81;4197061;28;19924;-64
2023/11/03 09:31:12;;;;;;;;;;;;;;;24.14;32.44;98498.19;4197014;28;20023;-65
2023/11/03 09:33:13;;;;;;;;;;;;;;;24.16;32.24;98496.94;4197514;28;19970;-64
2023/11/03 09:35:15;;;;;;;;;;;;;;;24.18;32.75;98507.47;4196740;28;19928;-65
2023/11/03 09:37:17;;;;;;;;;;;;;;;24.20;32.71;98510.81;4197461;28;19932;-64
2023/11/03 09:39:18;;;;;;;;;;;;;;;24.22;32.54;98516.81;4197181;28;19924;-65
2023/11/03 09:41:20;;;;;;;;;;;;;;;24.20;32.24;98518.88;4197232;28;19932;-64
2023/11/03 09:43:22;;;;;;;;;;;;;;;24.17;32.25;98516.56;4197190;28;19924;-64
2023/11/03 09:45:27;;;;;;;;;;;;;;;24.17;32.32;98522.78;4197378;28;20333;-65
2023/11/03 09:47:28;;;;;;;;;;;;;;;24.19;32.69;98525.25;4209778;28;20342;-63
2023/11/03 09:49:30;;;;;;;;;;;;;;;24.15;32.33;98524.81;4196530;28;19925;-64
2023/11/03 09:51:33;;;;;;;;;;;;;;;24.11;32.34;98528.94;4200593;28;19935;-63
2023/11/03 09:53:36;;;;;;;;;;;;;;;24.07;32.47;98528.50;4188043;28;19925;-64
2023/11/03 09:55:40;;;;;;;;;;;;;;;24.11;32.46;98530.78;4197238;28;20379;-63
2023/11/03 09:57:43;;;;;;;;;;;;;;;24.13;32.42;98534.09;4208876;28;19928;-64
2023/11/03 09:59:50;;;;;;;;;;;;;;;24.19;32.43;98534.16;4196952;28;20020;-64
2023/11/03 10:01:53;;;;;;;;;;;;;;;24.21;32.59;98528.59;4200952;28;19977;-65
2023/11/03 10:03:55;;;;;;;;;;;;;;;24.22;32.44;98531.06;4204593;28;19924;-65
2023/11/03 10:05:57;;;;;;;;;;;;;;;24.22;32.49;98535.63;4213975;28;20091;-64
2023/11/03 10:08:00;;;;;;;;;;;;;;;24.23;32.40;98539.97;4202319;28;19928;-64
2023/11/03 10:10:02;;;;;;;;;;;;;;;24.20;32.26;98540.34;4212795;28;19946;-65
2023/11/03 10:12:09;;;;;;;;;;;;;;;24.16;32.61;98531.84;4211168;28;20374;-64
2023/11/03 10:14:11;;;;;;;;;;;;;;;24.15;32.49;98535.56;4204233;28;19924;-64
2023/11/03 10:16:13;;;;;;;;;;;;;;;24.17;32.54;98541.59;4213653;28;19989;-64
2023/11/03 10:18:14;;;;;;;;;;;;;;;24.21;32.54;98536.66;4210744;28;19928;-64
2023/11/03 10:20:20;;;;;;;;;;;;;;;24.23;32.67;98535.41;4213539;28;19966;-65
2023/11/03 10:22:22;;;;;;;;;;;;;;;24.25;32.66;98535.22;4207187;28;19932;-64
2023/11/03 10:24:29;;;;;;;;;;;;;;;24.28;32.21;98536.69;4196616;28;19928;-65
2023/11/03 10:26:32;;;;;;;;;;;;;;;24.28;32.32;98536.69;4196620;28;20423;-63
2023/11/03 10:28:34;;;;;;;;;;;;;;;24.29;32.41;98547.25;4196687;28;19959;-64
2023/11/03 10:30:37;;;;;;;;;;;;;;;24.28;32.36;98542.03;4196681;28;20010;-64
2023/11/03 10:32:39;;;;;;;;;;;;;;;24.22;32.63;98543.69;4196094;28;20358;-64
2023/11/03 10:34:40;;;;;;;;;;;;;;;24.18;32.67;98539.72;4196498;28;19924;-64
2023/11/03 10:36:42;;;;;;;;;;;;;;;24.14;32.20;98536.59;4196802;28;20424;-64